Latest Coastal Weather Observations for Darwin Harbour

IDD60701

Issued at 8:41 am CST Tuesday 3 May 2016 (issued every 10 minutes, with the page automatically refreshed every 10 minutes)

About coastal observations | Map of coastal stations | Coastal observations for NT | Marine services | Other Formats
Station Details ID: 014072 Name: DARWIN NTC AWS Lat: -12.47 Lon: 130.85 Height: 0.0 m
Data from the previous 72 hours. | See also: Recent months for locations in Northern Territory
Date/Time
CST
Temp

°C
Wind Pressure Rain
since 9am
mm
Weather Cloud Vis
km
Sea
Height
m
Swell
Dir
 
Speed
knots
Gust
knots
hPa Trend Height
m
Period
s
Dir
03/08:30am 27.3 ENE 6 9 1011.2 - - - - - - - - -
03/08:00am 26.2 E 9 13 1011.2 - - - - - - - - -
03/07:30am 26.3 E 11 14 1011.0 - - - - - - - - -
03/07:00am 26.1 E 9 11 1011.0 - - - - - - - - -
03/06:30am 26.1 E 11 13 1010.7 - - - - - - - - -
03/06:00am 26.3 E 13 15 1010.0 - - - - - - - - -
03/05:30am 26.2 E 12 15 1009.8 - - - - - - - - -
03/05:00am 26.2 E 9 12 1009.5 - - - - - - - - -
03/04:30am 26.1 ESE 7 10 1009.5 - - - - - - - - -
03/04:00am 26.2 ESE 9 11 1009.5 - - - - - - - - -
03/03:30am 26.3 ESE 8 11 1009.7 - - - - - - - - -
03/03:00am 26.5 ESE 6 10 1010.0 - - - - - - - - -
03/02:30am 26.3 SE 6 9 1010.1 - - - - - - - - -
03/02:00am 26.4 SE 8 12 1010.4 - - - - - - - - -
03/01:30am 27.1 SE 6 8 1010.6 - - - - - - - - -
03/01:00am 27.4 SSE 8 13 1011.3 - - - - - - - - -
03/12:30am 28.7 ESE 9 11 1011.7 - - - - - - - - -
03/12:00am 28.8 ENE 5 7 1011.8 - - - - - - - - -
 
Date/Time
CST
Temp

°C
Wind Pressure Rain
since 9am
mm
Weather Cloud Vis
km
Sea
Height
m
Swell
Dir
 
Speed
knots
Gust
knots
hPa Trend Height
m
Period
s
Dir
02/11:30pm 28.8 ENE 6 9 1011.9 - - - - - - - - -
02/11:00pm 28.9 ENE 7 9 1011.8 - - - - - - - - -
02/10:30pm 28.7 ENE 4 7 1011.7 - - - - - - - - -
02/10:00pm 29.1 ENE 4 6 1011.9 - - - - - - - - -
02/09:30pm 28.8 NE 3 5 1012.2 - - - - - - - - -
02/09:00pm 29.2 NE 3 5 1012.0 - - - - - - - - -
02/08:30pm 28.9 NE 4 6 1011.6 - - - - - - - - -
02/08:00pm 29.0 NE 4 9 1011.0 - - - - - - - - -
02/07:30pm 29.1 NE 4 7 1011.0 - - - - - - - - -
02/07:00pm 29.3 NE 4 6 1010.7 - - - - - - - - -
02/06:30pm 29.8 ENE 4 7 1009.9 - - - - - - - - -
02/06:00pm 29.9 ENE 5 8 1009.4 - - - - - - - - -
02/05:30pm 30.1 ENE 6 10 1009.1 - - - - - - - - -
02/05:00pm 30.1 ENE 8 16 1008.8 - - - - - - - - -
02/04:30pm 30.2 ENE 8 13 1008.5 - - - - - - - - -
02/04:00pm 30.1 ENE 9 14 1008.3 - - - - - - - - -
02/03:30pm 30.0 ENE 8 16 1008.3 - - - - - - - - -
02/03:00pm 30.0 ENE 5 11 1008.5 - - - - - - - - -
02/02:30pm 30.0 ENE 8 14 1008.9 - - - - - - - - -
02/02:00pm 29.9 NE 6 14 1009.4 - - - - - - - - -
02/01:30pm 29.0 NNE 7 14 1009.7 - - - - - - - - -
02/01:00pm 30.7 ENE 12 18 1009.8 - - - - - - - - -
02/12:30pm 30.2 E 11 16 1010.0 - - - - - - - - -
02/12:00pm 29.5 E 11 15 1010.5 - - - - - - - - -
02/11:30am 29.5 E 11 16 1011.0 - - - - - - - - -
02/11:00am 29.7 E 13 18 1011.3 - - - - - - - - -
02/10:30am 29.7 ENE 12 18 1011.4 - - - - - - - - -
02/10:00am 29.1 E 11 16 1011.3 - - - - - - - - -
02/09:30am 28.1 E 10 11 1011.4 - - - - - - - - -
02/09:00am 27.7 E 11 15 1011.1 - - - - - - - - -
02/08:30am 27.5 E 9 12 1011.0 - - - - - - - - -
02/08:00am 27.2 ESE 9 12 1010.8 - - - - - - - - -
02/07:30am 27.2 SE 10 13 1010.4 - - - - - - - - -
02/07:00am 27.4 E 9 12 1010.2 - - - - - - - - -
02/06:30am 27.2 E 8 11 1009.7 - - - - - - - - -
02/06:00am 27.0 E 9 11 1009.6 - - - - - - - - -
02/05:30am 27.2 E 9 13 1009.2 - - - - - - - - -
02/05:00am 27.1 E 9 12 1008.9 - - - - - - - - -
02/04:30am 27.1 ENE 8 12 1008.8 - - - - - - - - -
02/04:00am 27.2 E 8 11 1008.9 - - - - - - - - -
02/03:30am 27.0 ENE 4 9 1008.9 - - - - - - - - -
02/03:00am 27.2 E 6 8 1008.8 - - - - - - - - -
02/02:30am 26.9 E 8 11 1009.0 - - - - - - - - -
02/02:00am 27.3 E 10 13 1009.3 - - - - - - - - -
02/01:30am 27.0 ESE 11 14 1009.7 - - - - - - - - -
02/01:00am 27.6 SE 8 11 1010.1 - - - - - - - - -
02/12:30am 27.4 SE 6 8 1010.1 - - - - - - - - -
02/12:00am 27.5 SE 8 10 1010.4 - - - - - - - - -
 
Date/Time
CST
Temp

°C
Wind Pressure Rain
since 9am
mm
Weather Cloud Vis
km
Sea
Height
m
Swell
Dir
 
Speed
knots
Gust
knots
hPa Trend Height
m
Period
s
Dir
01/11:30pm 27.4 E 7 9 1010.7 - - - - - - - - -
01/11:00pm 27.8 E 9 12 1011.2 - - - - - - - - -
01/10:30pm 27.8 E 15 17 1011.1 - - - - - - - - -
01/10:00pm 27.3 E 14 18 1010.9 - - - - - - - - -
01/09:30pm 28.1 ENE 14 21 1010.9 - - - - - - - - -
01/09:27pm 28.2 ENE 13 21 1010.9 - - - - - - - - -
01/09:00pm 29.5 NE 4 8 1010.8 - - - - - - - - -
01/08:30pm 29.6 NE 4 6 1010.1 - - - - - - - - -
01/08:00pm 29.7 NE 4 7 1009.7 - - - - - - - - -
01/07:30pm 30.2 NNE 3 5 1009.4 - - - - - - - - -
01/07:00pm 29.8 W 2 4 1009.2 - - - - - - - - -
01/06:30pm 29.8 SW 3 8 1009.1 - - - - - - - - -
01/06:00pm 30.5 NE 4 8 1008.8 - - - - - - - - -
01/05:30pm 30.4 N 2 5 1008.1 - - - - - - - - -
01/05:00pm 30.0 NNE 3 6 1007.6 - - - - - - - - -
01/04:30pm 28.4 NNE 8 14 1007.8 - - - - - - - - -
01/04:00pm 30.8 WNW 10 13 1007.6 - - - - - - - - -
01/03:30pm 30.6 WNW 10 14 1007.8 - - - - - - - - -
01/03:00pm 30.8 WNW 9 12 1008.0 - - - - - - - - -
01/02:30pm 30.9 W 7 9 1008.5 - - - - - - - - -
01/02:00pm 30.8 WNW 8 10 1008.7 - - - - - - - - -
01/01:30pm 32.1 E 5 10 1009.0 - - - - - - - - -
01/01:00pm 32.7 E 4 6 1009.4 - - - - - - - - -
01/12:30pm 31.3 E 4 8 1009.9 - - - - - - - - -
01/12:00pm 31.2 ENE 7 10 1010.2 - - - - - - - - -
01/11:30am 31.1 ENE 8 12 1010.7 - - - - - - - - -
01/11:00am 29.6 SE 4 6 1010.9 - - - - - - - - -
01/10:30am 29.3 SE 5 7 1011.0 - - - - - - - - -
01/10:00am 29.6 E 4 7 1011.3 - - - - - - - - -
01/09:30am 28.9 E 4 6 1011.4 - - - - - - - - -
01/09:00am 28.2 SE 5 6 1011.3 - - - - - - - - -
01/08:30am 28.3 ESE 4 6 1011.4 - - - - - - - - -
01/08:00am 28.0 ESE 6 8 1011.2 - - - - - - - - -
01/07:30am 28.1 ESE 8 11 1010.6 - - - - - - - - -
01/07:00am 28.5 ESE 5 7 1010.5 - - - - - - - - -
01/06:30am 28.0 E 4 7 1010.2 - - - - - - - - -
01/06:00am 27.2 E 3 5 1010.0 - - - - - - - - -
01/05:30am 26.9 ENE 3 5 1009.9 - - - - - - - - -
01/05:00am 26.3 NE 3 5 1010.1 - - - - - - - - -
01/04:30am 25.6 NE 2 5 1009.6 - - - - - - - - -
01/04:00am 26.8 ESE 4 7 1010.0 - - - - - - - - -
01/03:30am 25.6 E 10 13 1009.5 - - - - - - - - -
01/03:00am 25.2 ENE 10 16 1010.3 - - - - - - - - -
01/02:30am 25.2 E 22 32 1010.2 - - - - - - - - -
01/02:04am 28.7 SE 7 28 1010.2 - - - - - - - - -
01/02:00am 29.2 SE 2 7 1010.2 - - - - - - - - -
01/01:30am 28.4 NNW 7 15 1010.0 - - - - - - - - -
01/01:00am 29.6 SW 5 7 1009.8 - - - - - - - - -
01/12:30am 29.8 SW 4 5 1010.2 - - - - - - - - -
01/12:00am 29.8 SW 5 7 1010.3 - - - - - - - - -
 
Date/Time
CST
Temp

°C
Wind Pressure Rain
since 9am
mm
Weather Cloud Vis
km
Sea
Height
m
Swell
Dir
 
Speed
knots
Gust
knots
hPa Trend Height
m
Period
s
Dir
30/11:30pm 29.9 WSW 5 7 1010.2 - - - - - - - - -
30/11:00pm 29.9 WSW 3 5 1010.3 - - - - - - - - -
30/10:30pm 29.9 W 4 5 1010.3 - - - - - - - - -
30/10:00pm 29.9 W 5 7 1010.3 - - - - - - - - -
30/09:30pm 30.0 W 7 8 1010.2 - - - - - - - - -
30/09:00pm 29.9 W 7 8 1010.1 - - - - - - - - -
30/08:30pm 30.1 W 7 9 1010.0 - - - - - - - - -
30/08:00pm 30.0 WNW 8 10 1009.5 - - - - - - - - -
30/07:30pm 30.1 WNW 8 10 1009.4 - - - - - - - - -
30/07:00pm 30.3 W 9 11 1009.1 - - - - - - - - -
30/06:30pm 30.6 W 7 11 1008.7 - - - - - - - - -
30/06:00pm 31.2 WNW 5 9 1008.2 - - - - - - - - -
30/05:30pm 31.0 WNW 6 10 1007.9 - - - - - - - - -
30/05:00pm 30.8 WNW 7 12 1007.6 - - - - - - - - -
30/04:30pm 31.0 WNW 6 10 1007.5 - - - - - - - - -
30/04:00pm 32.3 NNW 3 7 1007.4 - - - - - - - - -
30/03:30pm 31.9 NNW 6 9 1007.6 - - - - - - - - -
30/03:00pm 31.5 WNW 6 9 1008.0 - - - - - - - - -
30/02:30pm 31.6 W 7 9 1008.4 - - - - - - - - -
30/02:00pm 31.4 W 7 11 1008.8 - - - - - - - - -
30/01:30pm 31.6 W 4 9 1009.4 - - - - - - - - -
30/01:00pm 30.3 W 5 8 1010.0 - - - - - - - - -
30/12:30pm 30.8 W 1 5 1010.7 - - - - - - - - -
30/12:00pm 30.6 WSW 2 3 1011.2 - - - - - - - - -
30/11:30am 30.3 WSW 3 4 1011.6 - - - - - - - - -
30/11:00am 30.4 WNW 1 2 1012.1 - - - - - - - - -
30/10:30am 29.8 SSE 2 4 1012.4 - - - - - - - - -
30/10:00am 29.3 ESE 3 5 1012.5 - - - - - - - - -
30/09:30am 28.9 SSE 2 3 1012.4 - - - - - - - - -
30/09:00am 28.5 SE 3 5 1012.3 - - - - - - - - -

Other Formats:

Comma delimited format used in spreadsheet applications
http://www.bom.gov.au/fwo/IDD60701/IDD60701.95122.axf

JavaScript Object Notation format (JSON) in row-major order
http://www.bom.gov.au/fwo/IDD60701/IDD60701.95122.json